Time;durP1;ratioP1;P1;durP2;ratioP2;P2;SDS_P1;SDS_P2;PMS_P1;PMS_P2;Temp;Humidity;BMP_temperature;BMP_pressure;BME280_temperature;BME280_humidity;BME280_pressure;Samples;Min_cycle;Max_cycle;Signal;HPM_P1;HPM_P2
2021/11/13 00:01:42;;;;;;;;;;;;;;;-144.99;100.00;52623.38;5004622;28;20016;-65
2021/11/13 00:04:09;;;;;;;;;;;;;;;-144.99;100.00;52680.47;5005857;28;19994;-63
2021/11/13 00:06:35;;;;;;;;;;;;;;;-144.99;100.00;52621.34;5003348;28;20414;-63
2021/11/13 00:09:04;;;;;;;;;;;;;;;-144.99;100.00;52603.00;5003505;28;20000;-63
2021/11/13 00:11:30;;;;;;;;;;;;;;;-144.99;100.00;52582.63;5003974;28;19982;-63
2021/11/13 00:14:01;;;;;;;;;;;;;;;-144.99;100.00;52623.38;5004698;28;20673;-64
2021/11/13 00:16:28;;;;;;;;;;;;;;;-144.99;100.00;52627.47;5000265;28;20036;-64
2021/11/13 00:18:55;;;;;;;;;;;;;;;-144.99;100.00;52651.94;5004181;28;19984;-66
2021/11/13 00:21:21;;;;;;;;;;;;;;;-144.99;100.00;52619.31;5005338;28;20088;-64
2021/11/13 00:23:47;;;;;;;;;;;;;;;-144.99;100.00;52627.47;5006287;28;20362;-64
2021/11/13 00:26:15;;;;;;;;;;;;;;;-144.99;100.00;52607.09;5003718;28;19950;-63
2021/11/13 00:28:42;;;;;;;;;;;;;;;-144.99;100.00;52635.63;5005305;28;20114;-64
2021/11/13 00:31:08;;;;;;;;;;;;;;;-144.99;100.00;52672.31;5006137;28;19981;-64
2021/11/13 00:33:35;;;;;;;;;;;;;;;-144.99;100.00;52639.69;4662885;28;9999822;-67
2021/11/13 00:36:01;;;;;;;;;;;;;;;-144.99;100.00;52596.88;5007044;28;20373;-65
2021/11/13 00:38:27;;;;;;;;;;;;;;;-144.99;100.00;52635.63;5007508;28;19982;-65
2021/11/13 00:40:54;;;;;;;;;;;;;;;-144.99;100.00;52668.22;5008247;28;19994;-64
2021/11/13 00:43:22;;;;;;;;;;;;;;;-144.99;100.00;52645.81;5008993;28;19994;-64
2021/11/13 00:45:49;;;;;;;;;;;;;;;-144.99;100.00;52635.63;5008697;28;20446;-65
2021/11/13 00:48:15;;;;;;;;;;;;;;;-144.99;100.00;52625.44;5010360;28;19974;-64
2021/11/13 00:50:42;;;;;;;;;;;;;;;-144.99;100.00;52631.53;5010376;28;20001;-64
2021/11/13 00:53:08;;;;;;;;;;;;;;;-144.99;100.00;52633.59;5009989;28;19990;-64
2021/11/13 00:55:34;;;;;;;;;;;;;;;-144.99;100.00;52635.63;5010977;28;19981;-63
2021/11/13 00:58:01;;;;;;;;;;;;;;;-144.99;100.00;52637.66;5009060;28;19985;-64
2021/11/13 01:00:29;;;;;;;;;;;;;;;-144.99;100.00;52639.69;5010839;28;19988;-63
2021/11/13 01:02:55;;;;;;;;;;;;;;;-144.99;100.00;52590.78;5008411;28;20080;-61
2021/11/13 01:05:22;;;;;;;;;;;;;;;-144.99;100.00;52619.31;5010065;28;20361;-61
2021/11/13 01:07:48;;;;;;;;;;;;;;;-144.99;100.00;52615.25;5006837;28;20645;-62
2021/11/13 01:10:16;;;;;;;;;;;;;;;-144.99;100.00;52623.38;5009195;28;19974;-60
2021/11/13 01:12:43;;;;;;;;;;;;;;;-144.99;100.00;52658.03;5010040;28;20069;-61
2021/11/13 01:15:10;;;;;;;;;;;;;;;-144.99;100.00;52603.00;5009739;28;19985;-62
2021/11/13 01:17:39;;;;;;;;;;;;;;;-144.99;100.00;52631.53;5008885;28;20008;-61
2021/11/13 01:20:06;;;;;;;;;;;;;;;-144.99;100.00;52635.63;5010930;28;20060;-61
2021/11/13 01:22:33;;;;;;;;;;;;;;;-144.99;100.00;52619.31;5010518;28;19998;-62
2021/11/13 01:24:59;;;;;;;;;;;;;;;-144.99;100.00;52594.84;5009647;28;19982;-61
2021/11/13 01:27:26;;;;;;;;;;;;;;;-144.99;100.00;52611.16;5009333;28;20358;-59
2021/11/13 01:29:52;;;;;;;;;;;;;;;-144.99;100.00;52611.16;5009088;28;19974;-60
2021/11/13 01:32:20;;;;;;;;;;;;;;;-144.99;100.00;52598.94;5010000;28;19997;-61
2021/11/13 01:34:47;;;;;;;;;;;;;;;-144.99;100.00;52609.13;5006640;28;19974;-61
2021/11/13 01:37:14;;;;;;;;;;;;;;;-144.99;100.00;52631.53;5009415;28;19978;-61
2021/11/13 01:39:40;;;;;;;;;;;;;;;-144.99;100.00;52629.50;5008607;28;19973;-60
2021/11/13 01:42:07;;;;;;;;;;;;;;;-144.99;100.00;52617.28;5010136;28;20632;-61
2021/11/13 01:44:34;;;;;;;;;;;;;;;-144.99;100.00;52631.53;5009398;28;19977;-61
2021/11/13 01:47:01;;;;;;;;;;;;;;;-144.99;100.00;52621.34;5007370;28;19980;-59
2021/11/13 01:49:27;;;;;;;;;;;;;;;-144.99;100.00;52617.28;5009858;28;19988;-59
2021/11/13 01:51:55;;;;;;;;;;;;;;;-144.99;100.00;52590.78;5008629;28;19984;-60
2021/11/13 01:54:22;;;;;;;;;;;;;;;-144.99;100.00;52598.94;5009140;28;20374;-60
2021/11/13 01:56:50;;;;;;;;;;;;;;;-144.99;100.00;52623.38;5009537;28;19974;-62
2021/11/13 01:59:18;;;;;;;;;;;;;;;-144.99;100.00;52621.34;5006152;28;19993;-61
2021/11/13 02:01:45;;;;;;;;;;;;;;;-144.99;100.00;52603.00;5009764;28;20596;-61
2021/11/13 02:04:12;;;;;;;;;;;;;;;-144.99;100.00;52619.31;5009757;28;20124;-61
2021/11/13 02:06:38;;;;;;;;;;;;;;;-144.99;100.00;52594.84;5009539;28;19977;-64
2021/11/13 02:09:06;;;;;;;;;;;;;;;-144.99;100.00;52611.16;5008581;28;19978;-65
2021/11/13 02:11:33;;;;;;;;;;;;;;;-144.99;100.00;52619.31;5009547;28;20338;-65
2021/11/13 02:13:59;;;;;;;;;;;;;;;-144.99;100.00;52627.47;5009521;28;20358;-65
2021/11/13 02:16:26;;;;;;;;;;;;;;;-144.99;99.83;52633.59;5009378;28;20406;-60
2021/11/13 02:18:54;;;;;;;;;;;;;;;-144.99;99.49;52637.66;5007255;28;19978;-59
2021/11/13 02:21:22;;;;;;;;;;;;;;;-144.99;100.00;52611.16;5008113;28;20540;-59
2021/11/13 02:23:49;;;;;;;;;;;;;;;-144.99;99.67;52590.78;5007943;28;19990;-59
2021/11/13 02:26:16;;;;;;;;;;;;;;;-144.99;99.46;52656.00;5009269;28;20009;-60
2021/11/13 02:28:42;;;;;;;;;;;;;;;-144.99;98.86;52637.66;5008359;28;19974;-61
2021/11/13 02:31:11;;;;;;;;;;;;;;;-144.99;98.72;52623.38;5007008;28;19974;-59
2021/11/13 02:33:37;;;;;;;;;;;;;;;-144.99;98.54;52633.59;5005988;28;20001;-62
2021/11/13 02:36:05;;;;;;;;;;;;;;;-144.99;98.31;52639.69;5008265;28;20426;-60
2021/11/13 02:38:36;;;;;;;;;;;;;;;-144.99;98.06;52619.31;5005837;28;20069;-60
2021/11/13 02:41:04;;;;;;;;;;;;;;;-144.99;98.16;52639.69;5010495;28;19982;-60
2021/11/13 02:43:32;;;;;;;;;;;;;;;-144.99;98.07;52623.38;5004201;28;20001;-60
2021/11/13 02:45:59;;;;;;;;;;;;;;;-144.99;97.90;52598.94;5009032;28;20258;-59
2021/11/13 02:48:27;;;;;;;;;;;;;;;-144.99;97.86;52631.53;5010799;28;20334;-63
2021/11/13 02:50:53;;;;;;;;;;;;;;;-144.99;98.28;52635.63;5009721;28;20013;-63
2021/11/13 02:53:21;;;;;;;;;;;;;;;-144.99;98.68;52641.72;5010120;28;20389;-63
2021/11/13 02:55:50;;;;;;;;;;;;;;;-144.99;98.69;52607.09;5010062;28;20010;-57
2021/11/13 02:58:16;;;;;;;;;;;;;;;-144.99;98.69;52637.66;5009875;28;19985;-56
2021/11/13 03:00:44;;;;;;;;;;;;;;;-144.99;99.58;52631.53;5006451;28;20346;-57
2021/11/13 03:03:15;;;;;;;;;;;;;;;-144.99;99.29;52635.63;5009193;28;20089;-57
2021/11/13 03:05:46;;;;;;;;;;;;;;;-144.99;99.71;52617.28;5008592;28;19982;-56
2021/11/13 03:08:12;;;;;;;;;;;;;;;-144.99;100.00;52590.78;5007913;28;19997;-56
2021/11/13 03:10:39;;;;;;;;;;;;;;;-144.99;99.99;52603.00;5009137;28;20071;-57
2021/11/13 03:13:07;;;;;;;;;;;;;;;-144.99;100.00;52611.16;5003186;28;20037;-57
2021/11/13 03:15:33;;;;;;;;;;;;;;;-144.99;100.00;52653.97;5005534;28;20057;-57
2021/11/13 03:17:59;;;;;;;;;;;;;;;-144.99;100.00;52594.84;5007986;28;19988;-57
2021/11/13 03:20:27;;;;;;;;;;;;;;;-144.99;100.00;52631.53;5008266;28;19982;-57
2021/11/13 03:22:54;;;;;;;;;;;;;;;-144.99;100.00;52623.38;5004308;28;19993;-56
2021/11/13 03:25:22;;;;;;;;;;;;;;;-144.99;100.00;52545.94;5008725;28;19978;-55
2021/11/13 03:27:50;;;;;;;;;;;;;;;-144.99;99.92;52590.78;5007955;28;19982;-57
2021/11/13 03:30:19;;;;;;;;;;;;;;;-144.99;100.00;52627.47;5007916;28;20454;-57
2021/11/13 03:32:45;;;;;;;;;;;;;;;-144.99;100.00;52586.69;5004970;28;20159;-56
2021/11/13 03:35:13;;;;;;;;;;;;;;;-144.99;100.00;52603.00;5007328;28;19982;-56
2021/11/13 03:37:40;;;;;;;;;;;;;;;-144.99;100.00;52629.50;5005695;28;20005;-61
2021/11/13 03:40:07;;;;;;;;;;;;;;;-144.99;100.00;52660.09;5007965;28;19974;-63
2021/11/13 03:42:33;;;;;;;;;;;;;;;-144.99;100.00;52633.59;5003917;28;19993;-63
2021/11/13 03:45:01;;;;;;;;;;;;;;;-144.99;99.36;52619.31;5003021;28;19974;-63
2021/11/13 03:47:28;;;;;;;;;;;;;;;-144.99;99.18;52635.63;5007778;28;19985;-64
2021/11/13 03:49:55;;;;;;;;;;;;;;;-144.99;99.06;52590.78;5010629;28;20326;-63
2021/11/13 03:52:21;;;;;;;;;;;;;;;-144.99;98.91;52586.69;5010046;28;20466;-63
2021/11/13 03:54:48;;;;;;;;;;;;;;;-144.99;99.27;52611.16;5006513;28;19980;-63
2021/11/13 03:57:14;;;;;;;;;;;;;;;-144.99;99.46;52562.25;5007065;28;19985;-62
2021/11/13 03:59:40;;;;;;;;;;;;;;;-144.99;99.12;52619.31;5008561;28;19989;-62
2021/11/13 04:02:10;;;;;;;;;;;;;;;-144.99;99.33;52611.16;5008454;28;20019;-63
2021/11/13 04:04:37;;;;;;;;;;;;;;;-144.99;99.44;52607.09;5005074;28;20076;-63
2021/11/13 04:07:04;;;;;;;;;;;;;;;-144.99;99.41;52651.94;5005666;28;20280;-63
2021/11/13 04:09:30;;;;;;;;;;;;;;;-144.99;99.81;52645.81;5007212;28;20457;-63
2021/11/13 04:12:03;;;;;;;;;;;;;;;-144.99;100.00;52570.38;5006879;28;20064;-63
2021/11/13 04:14:29;;;;;;;;;;;;;;;-144.99;100.00;52615.25;5003204;28;20056;-58
2021/11/13 04:16:56;;;;;;;;;;;;;;;-144.99;99.97;52627.47;5007357;28;19978;-62
2021/11/13 04:19:22;;;;;;;;;;;;;;;-144.99;100.00;52623.38;5007084;28;19982;-61
2021/11/13 04:21:50;;;;;;;;;;;;;;;-144.99;99.94;52643.78;5007189;28;19996;-61
2021/11/13 04:24:16;;;;;;;;;;;;;;;-144.99;100.00;52617.28;5004893;28;19990;-61
2021/11/13 04:26:43;;;;;;;;;;;;;;;-144.99;100.00;52623.38;5008025;28;19974;-61
2021/11/13 04:29:09;;;;;;;;;;;;;;;-144.99;100.00;52613.19;5008007;28;20039;-62
2021/11/13 04:31:36;;;;;;;;;;;;;;;-144.99;100.00;52619.31;5007799;28;19988;-61
2021/11/13 04:34:07;;;;;;;;;;;;;;;-144.99;100.00;52580.59;5005242;28;20427;-61
2021/11/13 04:36:37;;;;;;;;;;;;;;;-144.99;100.00;52664.16;5004174;28;20001;-61
2021/11/13 04:39:06;;;;;;;;;;;;;;;-144.99;100.00;52611.16;5007572;28;20056;-61
2021/11/13 04:41:32;;;;;;;;;;;;;;;-144.99;100.00;52611.16;5007392;28;20357;-61
2021/11/13 04:43:59;;;;;;;;;;;;;;;-144.99;100.00;52617.28;5003671;28;19994;-60
2021/11/13 04:46:26;;;;;;;;;;;;;;;-144.99;100.00;52598.94;5007064;28;19978;-61
2021/11/13 04:48:53;;;;;;;;;;;;;;;-144.99;100.00;52603.00;5007202;28;19974;-61
2021/11/13 04:51:19;;;;;;;;;;;;;;;-144.99;100.00;52607.09;5006484;28;20192;-60
2021/11/13 04:53:46;;;;;;;;;;;;;;;-144.99;100.00;52603.00;5006191;28;19989;-59
2021/11/13 04:56:14;;;;;;;;;;;;;;;-144.99;100.00;52603.00;5003178;28;19977;-60
2021/11/13 04:58:40;;;;;;;;;;;;;;;-144.99;100.00;52607.09;5005519;28;21461;-60
2021/11/13 05:01:07;;;;;;;;;;;;;;;-144.99;100.00;52586.69;5043742;22;19985;-65
2021/11/13 05:03:33;;;;;;;;;;;;;;;-144.99;100.00;52611.16;5049680;28;19993;-64
2021/11/13 05:06:00;;;;;;;;;;;;;;;-144.99;100.00;52598.94;5042312;28;20000;-64
2021/11/13 05:08:27;;;;;;;;;;;;;;;-144.99;100.00;52629.50;5039059;28;19977;-64
2021/11/13 05:10:53;;;;;;;;;;;;;;;-144.99;100.00;52639.69;5045792;28;19973;-64
2021/11/13 05:13:21;;;;;;;;;;;;;;;-144.99;100.00;52627.47;5043060;28;19997;-66
2021/11/13 05:15:47;;;;;;;;;;;;;;;-144.99;100.00;52631.53;5041578;28;19942;-64
2021/11/13 05:18:14;;;;;;;;;;;;;;;-144.99;100.00;52603.00;5039499;28;19973;-64
2021/11/13 05:20:40;;;;;;;;;;;;;;;-144.99;100.00;52607.09;5060291;28;20050;-63
2021/11/13 05:23:07;;;;;;;;;;;;;;;-144.99;100.00;52611.16;5065069;28;19993;-64
2021/11/13 05:25:33;;;;;;;;;;;;;;;-144.99;100.00;52627.47;5056094;28;19977;-63
2021/11/13 05:28:00;;;;;;;;;;;;;;;-144.99;100.00;52631.53;5045692;28;20408;-63
2021/11/13 05:30:28;;;;;;;;;;;;;;;-144.99;100.00;52660.09;5052528;28;19977;-63
2021/11/13 05:32:55;;;;;;;;;;;;;;;-144.99;100.00;52627.47;5056513;28;19994;-63
2021/11/13 05:35:21;;;;;;;;;;;;;;;-144.99;100.00;52631.53;5046020;28;19978;-64
2021/11/13 05:37:48;;;;;;;;;;;;;;;-144.99;100.00;52594.84;5064685;28;20045;-64
2021/11/13 05:40:15;;;;;;;;;;;;;;;-144.99;100.00;52678.44;5066945;28;20017;-63
2021/11/13 05:42:42;;;;;;;;;;;;;;;-144.99;100.00;52623.38;5064447;28;20462;-63
2021/11/13 05:45:10;;;;;;;;;;;;;;;-144.99;100.00;52582.63;5046801;28;19974;-63
2021/11/13 05:47:38;;;;;;;;;;;;;;;-144.99;100.00;52637.66;5053160;28;19972;-63
2021/11/13 05:50:06;;;;;;;;;;;;;;;-144.99;100.00;52582.63;5047535;28;20345;-63
2021/11/13 05:52:32;;;;;;;;;;;;;;;-144.99;100.00;52611.16;5048337;28;20465;-63
2021/11/13 05:54:58;;;;;;;;;;;;;;;-144.99;100.00;52639.69;5045456;28;19972;-64
2021/11/13 05:57:25;;;;;;;;;;;;;;;-144.99;100.00;52611.16;5044139;28;19954;-64
2021/11/13 05:59:51;;;;;;;;;;;;;;;-144.99;100.00;52617.28;5054727;28;19974;-63
2021/11/13 06:02:18;;;;;;;;;;;;;;;-144.99;100.00;52603.00;5052686;28;19977;-63
2021/11/13 06:04:45;;;;;;;;;;;;;;;-144.99;100.00;52627.47;5064183;28;19974;-63
2021/11/13 06:07:12;;;;;;;;;;;;;;;-144.99;100.00;52627.47;5062470;28;19973;-64
2021/11/13 06:09:38;;;;;;;;;;;;;;;-144.99;100.00;52631.53;5062871;28;19977;-63
2021/11/13 06:12:05;;;;;;;;;;;;;;;-144.99;100.00;52639.69;5062678;28;20045;-63
2021/11/13 06:14:31;;;;;;;;;;;;;;;-144.99;100.00;52607.09;5059201;28;19977;-63
2021/11/13 06:16:58;;;;;;;;;;;;;;;-144.99;100.00;52613.19;5045665;28;20414;-63
2021/11/13 06:19:24;;;;;;;;;;;;;;;-144.99;100.00;52619.31;5048808;28;19978;-63
2021/11/13 06:21:52;;;;;;;;;;;;;;;-144.99;100.00;52631.53;5046906;28;19974;-63
2021/11/13 06:24:18;;;;;;;;;;;;;;;-144.99;100.00;52627.47;5043799;28;19994;-63
2021/11/13 06:26:45;;;;;;;;;;;;;;;-144.99;100.00;52603.00;5048191;28;19973;-63
2021/11/13 06:29:11;;;;;;;;;;;;;;;-144.99;100.00;52615.25;5045676;28;19978;-63
2021/11/13 06:31:38;;;;;;;;;;;;;;;-144.99;100.00;52598.94;5060727;28;20448;-63
2021/11/13 06:34:04;;;;;;;;;;;;;;;-144.99;100.00;52643.78;5059697;28;19995;-63
2021/11/13 06:36:30;;;;;;;;;;;;;;;-144.99;100.00;52627.47;5056003;28;20040;-63
2021/11/13 06:38:58;;;;;;;;;;;;;;;-144.99;100.00;52631.53;5042199;28;19981;-63
2021/11/13 06:41:29;;;;;;;;;;;;;;;-144.99;100.00;52643.78;5050852;28;19984;-63
2021/11/13 06:43:56;;;;;;;;;;;;;;;-144.99;100.00;52623.38;5048492;28;19997;-62
2021/11/13 06:46:22;;;;;;;;;;;;;;;-144.99;100.00;52572.44;5045440;28;19977;-61
2021/11/13 06:48:49;;;;;;;;;;;;;;;-144.99;100.00;52625.44;5054250;28;19996;-63
2021/11/13 06:51:15;;;;;;;;;;;;;;;-144.99;100.00;52647.84;5049026;28;19988;-64
2021/11/13 06:53:41;;;;;;;;;;;;;;;-144.99;100.00;52619.31;5047298;28;19989;-65
2021/11/13 06:56:09;;;;;;;;;;;;;;;-144.99;100.00;52611.16;5046262;28;20313;-64
2021/11/13 06:58:36;;;;;;;;;;;;;;;-144.99;100.00;52603.00;5048805;28;19981;-64
2021/11/13 07:01:03;;;;;;;;;;;;;;;-144.99;100.00;52600.97;5043130;28;19981;-65
2021/11/13 07:03:30;;;;;;;;;;;;;;;-144.99;100.00;52603.00;5044981;28;19973;-64
2021/11/13 07:05:56;;;;;;;;;;;;;;;-144.99;100.00;52635.63;5045848;28;19977;-64
2021/11/13 07:08:23;;;;;;;;;;;;;;;-144.99;100.00;52598.94;5045667;28;19981;-64
2021/11/13 07:10:52;;;;;;;;;;;;;;;-144.99;100.00;52615.25;5041418;28;19974;-65
2021/11/13 07:13:20;;;;;;;;;;;;;;;-144.99;100.00;52607.09;5055304;28;19997;-66
2021/11/13 07:15:47;;;;;;;;;;;;;;;-144.99;100.00;52586.69;5063486;28;20044;-65
2021/11/13 07:18:13;;;;;;;;;;;;;;;-144.99;100.00;52582.63;5062666;28;19988;-65
2021/11/13 07:20:39;;;;;;;;;;;;;;;-144.99;100.00;52603.00;5053676;28;19982;-64
2021/11/13 07:23:06;;;;;;;;;;;;;;;-144.99;100.00;52623.38;5046065;28;20365;-64
2021/11/13 07:25:33;;;;;;;;;;;;;;;-144.99;100.00;52607.09;5045108;28;19974;-65
2021/11/13 07:28:03;;;;;;;;;;;;;;;-144.99;100.00;52623.38;5055121;28;20110;-67
2021/11/13 07:30:38;;;;;;;;;;;;;;;-144.99;100.00;52619.31;5048159;28;20355;-68
2021/11/13 07:33:05;;;;;;;;;;;;;;;-144.99;100.00;52590.78;5046497;28;20075;-64
2021/11/13 07:35:32;;;;;;;;;;;;;;;-144.99;100.00;52574.47;5046589;28;19994;-65
2021/11/13 07:37:58;;;;;;;;;;;;;;;-144.99;100.00;52643.78;5050236;28;20076;-62
2021/11/13 07:40:25;;;;;;;;;;;;;;;-144.99;100.00;52607.09;5048830;28;19980;-62
2021/11/13 07:42:51;;;;;;;;;;;;;;;-144.99;100.00;52603.00;5049170;28;21286;-63
2021/11/13 07:45:17;;;;;;;;;;;;;;;-144.99;100.00;52613.19;5043550;28;19981;-65
2021/11/13 07:47:45;;;;;;;;;;;;;;;-144.99;100.00;52607.09;5044414;28;19945;-64
2021/11/13 07:50:13;;;;;;;;;;;;;;;-144.99;100.00;52615.25;5042947;28;19974;-64
2021/11/13 07:52:40;;;;;;;;;;;;;;;-144.99;100.00;52603.00;5042467;28;19989;-67
2021/11/13 07:55:07;;;;;;;;;;;;;;;-144.99;100.00;52619.31;5045276;28;19977;-69
2021/11/13 07:57:33;;;;;;;;;;;;;;;-144.99;100.00;52598.94;5044528;28;19954;-70
2021/11/13 08:00:00;;;;;;;;;;;;;;;-144.99;100.00;52611.16;5045929;28;20036;-67
2021/11/13 08:02:27;;;;;;;;;;;;;;;-144.99;100.00;52613.19;5049541;28;19994;-65
2021/11/13 08:04:55;;;;;;;;;;;;;;;-144.99;100.00;52627.47;5050553;28;20036;-64
2021/11/13 08:07:21;;;;;;;;;;;;;;;-144.99;100.00;52586.69;5040330;28;20422;-66
2021/11/13 08:09:48;;;;;;;;;;;;;;;-144.99;100.00;52603.00;5048082;28;19981;-63
2021/11/13 08:12:14;;;;;;;;;;;;;;;-144.99;100.00;52631.53;5048554;28;20012;-62
2021/11/13 08:14:40;;;;;;;;;;;;;;;-144.99;100.00;52653.97;5047980;28;19979;-64
2021/11/13 08:17:07;;;;;;;;;;;;;;;-144.99;100.00;52598.94;5050717;28;20064;-63
2021/11/13 08:19:33;;;;;;;;;;;;;;;-144.99;100.00;52594.84;5046721;28;20507;-63
2021/11/13 08:22:01;;;;;;;;;;;;;;;-144.99;100.00;52592.81;5041014;28;20068;-63
2021/11/13 08:24:27;;;;;;;;;;;;;;;-144.99;100.00;52643.78;5051703;28;20008;-63
2021/11/13 08:26:54;;;;;;;;;;;;;;;-144.99;100.00;52590.78;5045268;28;20033;-63
2021/11/13 08:29:20;;;;;;;;;;;;;;;-144.99;100.00;52635.63;5037434;28;19957;-64
2021/11/13 08:31:47;;;;;;;;;;;;;;;-144.99;100.00;52643.78;5042450;28;19974;-63
2021/11/13 08:34:13;;;;;;;;;;;;;;;-144.99;100.00;52629.50;5041755;28;20116;-65
2021/11/13 08:36:40;;;;;;;;;;;;;;;-144.99;100.00;52576.50;5038312;28;20493;-63
2021/11/13 08:39:08;;;;;;;;;;;;;;;-144.99;100.00;52590.78;5044112;28;19984;-66
2021/11/13 08:41:35;;;;;;;;;;;;;;;-144.99;100.00;52607.09;5037605;28;19973;-69
2021/11/13 08:44:02;;;;;;;;;;;;;;;-144.99;100.00;52613.19;5036597;28;20106;-69
2021/11/13 08:46:29;;;;;;;;;;;;;;;-144.99;100.00;52578.53;5041550;28;19993;-70
2021/11/13 08:48:56;;;;;;;;;;;;;;;-144.99;100.00;52572.44;5041895;28;20456;-71
2021/11/13 08:51:23;;;;;;;;;;;;;;;-144.99;100.00;52594.84;5039199;28;19980;-68
2021/11/13 08:53:54;;;;;;;;;;;;;;;-144.99;100.00;52594.84;5045126;28;19998;-68
2021/11/13 08:56:22;;;;;;;;;;;;;;;-144.99;100.00;52645.81;5043828;28;20442;-72
2021/11/13 08:58:49;;;;;;;;;;;;;;;-144.99;100.00;52627.47;5047400;28;20009;-69
2021/11/13 09:01:15;;;;;;;;;;;;;;;-144.99;100.00;52594.84;5041970;28;19978;-69
2021/11/13 09:03:43;;;;;;;;;;;;;;;-144.99;100.00;52588.75;5041375;28;19999;-69
2021/11/13 09:06:10;;;;;;;;;;;;;;;-144.99;100.00;52578.53;5039497;28;20394;-69
2021/11/13 09:08:38;;;;;;;;;;;;;;;-144.99;100.00;52645.81;5041861;28;20191;-69
2021/11/13 09:11:05;;;;;;;;;;;;;;;-144.99;100.00;52600.97;5046112;28;19980;-67
2021/11/13 09:13:34;;;;;;;;;;;;;;;-144.99;100.00;52578.53;5038893;28;19981;-68
2021/11/13 09:16:01;;;;;;;;;;;;;;;-144.99;100.00;52556.13;5040656;28;20056;-68
2021/11/13 09:18:28;;;;;;;;;;;;;;;-144.99;100.00;52611.16;5057067;28;19981;-67
2021/11/13 09:20:55;;;;;;;;;;;;;;;-144.99;100.00;52603.00;5056642;28;20072;-66
2021/11/13 09:23:21;;;;;;;;;;;;;;;-144.99;100.00;52566.31;5045848;28;19993;-68
2021/11/13 09:25:48;;;;;;;;;;;;;;;-144.99;100.00;52582.63;5067164;28;19977;-66
2021/11/13 09:28:15;;;;;;;;;;;;;;;-144.99;100.00;52578.53;5069342;28;20040;-65
2021/11/13 09:30:43;;;;;;;;;;;;;;;-144.99;100.00;52603.00;5063542;28;20060;-70
2021/11/13 09:33:10;;;;;;;;;;;;;;;-144.99;100.00;52607.09;5066043;28;20099;-67
2021/11/13 09:35:37;;;;;;;;;;;;;;;-144.99;100.00;52603.00;5065743;28;20004;-66
2021/11/13 09:38:04;;;;;;;;;;;;;;;-144.99;100.00;52586.69;5063225;28;20031;-66
2021/11/13 09:40:31;;;;;;;;;;;;;;;-144.99;100.00;52619.31;5055005;28;20155;-65
2021/11/13 09:42:59;;;;;;;;;;;;;;;-144.99;100.00;52611.16;5054843;28;19997;-67
2021/11/13 09:45:25;;;;;;;;;;;;;;;-144.99;100.00;52611.16;5052375;28;19984;-65
2021/11/13 09:47:54;;;;;;;;;;;;;;;-144.99;100.00;52560.19;5055448;28;20195;-66
2021/11/13 09:50:22;;;;;;;;;;;;;;;-144.99;100.00;52615.25;5040333;28;19977;-67
2021/11/13 09:52:49;;;;;;;;;;;;;;;-144.99;100.00;52578.53;5051527;28;19994;-67
2021/11/13 09:55:18;;;;;;;;;;;;;;;-144.99;100.00;52594.84;5052488;28;19981;-67
2021/11/13 09:57:44;;;;;;;;;;;;;;;-144.99;100.00;52607.09;5046931;28;19980;-67
2021/11/13 10:00:13;;;;;;;;;;;;;;;-144.99;100.00;52550.00;5049750;28;19987;-68
2021/11/13 10:02:40;;;;;;;;;;;;;;;-144.99;100.00;52590.78;5052633;28;20426;-68
2021/11/13 10:05:09;;;;;;;;;;;;;;;-144.99;100.00;52578.53;5054482;28;19988;-68
2021/11/13 10:07:36;;;;;;;;;;;;;;;-144.99;100.00;52580.59;5051460;28;19974;-68
2021/11/13 10:10:03;;;;;;;;;;;;;;;-144.99;100.00;52619.31;5052496;28;20016;-67
2021/11/13 10:12:33;;;;;;;;;;;;;;;-144.99;100.00;52596.88;5046629;28;20478;-69
2021/11/13 10:14:59;;;;;;;;;;;;;;;-144.99;100.00;52570.38;5045259;28;20202;-67
2021/11/13 10:17:27;;;;;;;;;;;;;;;-144.99;100.00;52582.63;5042773;28;19977;-67
2021/11/13 10:19:53;;;;;;;;;;;;;;;-144.99;100.00;52590.78;5044887;28;20439;-67
2021/11/13 10:22:21;;;;;;;;;;;;;;;-144.99;100.00;52590.78;5048583;28;20004;-67
2021/11/13 10:24:49;;;;;;;;;;;;;;;-144.99;100.00;52607.09;5052182;28;19989;-67
2021/11/13 10:27:16;;;;;;;;;;;;;;;-144.99;100.00;52582.63;5046228;28;20155;-67
2021/11/13 10:29:44;;;;;;;;;;;;;;;-144.99;100.00;52578.53;5054761;28;20039;-67
2021/11/13 10:32:12;;;;;;;;;;;;;;;-144.99;100.00;52566.31;5052059;28;19980;-67
2021/11/13 10:34:41;;;;;;;;;;;;;;;-144.99;100.00;52578.53;5043357;28;20454;-67
2021/11/13 10:37:08;;;;;;;;;;;;;;;-144.99;100.00;52590.78;5043329;28;20027;-67
2021/11/13 10:39:38;;;;;;;;;;;;;;;-144.99;100.00;52586.69;5042308;28;19983;-66
2021/11/13 10:42:06;;;;;;;;;;;;;;;-144.99;100.00;52558.16;5055673;28;20376;-70
2021/11/13 10:44:35;;;;;;;;;;;;;;;-144.99;100.00;52537.78;5038862;28;20037;-69
2021/11/13 10:47:08;;;;;;;;;;;;;;;-144.99;100.00;52603.00;5045453;28;19980;-68
2021/11/13 10:49:34;;;;;;;;;;;;;;;-144.99;100.00;52590.78;5046783;28;19973;-68
2021/11/13 10:52:03;;;;;;;;;;;;;;;-144.99;100.00;52586.69;5041142;28;19987;-67
2021/11/13 10:54:30;;;;;;;;;;;;;;;-144.99;100.00;52574.47;5040773;28;20448;-68
2021/11/13 10:56:58;;;;;;;;;;;;;;;-144.99;100.00;52645.81;5053484;28;20511;-68
2021/11/13 10:59:26;;;;;;;;;;;;;;;-144.99;100.00;52598.94;5041138;28;19981;-68
2021/11/13 11:01:53;;;;;;;;;;;;;;;-144.99;100.00;52578.53;5044769;22;20015;-66
2021/11/13 11:04:21;;;;;;;;;;;;;;;-144.99;100.00;52545.94;5017509;28;20434;-66
2021/11/13 11:06:49;;;;;;;;;;;;;;;-144.99;100.00;52607.09;5024890;28;20056;-66
2021/11/13 11:09:27;;;;;;;;;;;;;;;-144.99;100.00;52554.09;5024476;28;20485;-66
2021/11/13 11:11:54;;;;;;;;;;;;;;;-144.99;100.00;52615.25;5023274;28;19997;-66
2021/11/13 11:14:23;;;;;;;;;;;;;;;-144.99;100.00;52603.00;5018742;28;20092;-66
2021/11/13 11:16:51;;;;;;;;;;;;;;;-144.99;100.00;52572.44;5019199;28;19978;-66
2021/11/13 11:19:19;;;;;;;;;;;;;;;-144.99;100.00;52582.63;5025470;28;19981;-66
2021/11/13 11:21:50;;;;;;;;;;;;;;;-144.99;100.00;52592.81;5021967;28;19993;-66
2021/11/13 11:24:18;;;;;;;;;;;;;;;-144.99;100.00;52568.34;5019287;28;20092;-66
2021/11/13 11:26:45;;;;;;;;;;;;;;;-144.99;100.00;52572.44;5022442;28;19974;-67
2021/11/13 11:29:12;;;;;;;;;;;;;;;-144.99;100.00;52590.78;5020287;28;20072;-68
2021/11/13 11:31:41;;;;;;;;;;;;;;;-144.99;100.00;52578.53;5019091;28;20009;-68
2021/11/13 11:34:17;;;;;;;;;;;;;;;-144.99;100.00;52566.31;5021471;28;20076;-68
2021/11/13 11:36:44;;;;;;;;;;;;;;;-144.99;100.00;52582.63;5018847;28;19974;-68
2021/11/13 11:39:10;;;;;;;;;;;;;;;-144.99;100.00;52607.09;5015683;28;20323;-68
2021/11/13 11:41:37;;;;;;;;;;;;;;;-144.99;100.00;52550.00;5018946;28;20061;-67
2021/11/13 11:44:04;;;;;;;;;;;;;;;-144.99;100.00;52590.78;5021424;28;19993;-67
2021/11/13 11:46:31;;;;;;;;;;;;;;;-144.99;100.00;52582.63;5016310;28;19998;-67
2021/11/13 11:48:59;;;;;;;;;;;;;;;-144.99;100.00;52586.69;5019199;28;19973;-66
2021/11/13 11:51:25;;;;;;;;;;;;;;;-144.99;100.00;52570.38;5019730;28;19974;-68
2021/11/13 11:53:52;;;;;;;;;;;;;;;-144.99;100.00;52539.81;5023302;28;19995;-59
2021/11/13 11:56:18;;;;;;;;;;;;;;;-144.99;100.00;52590.78;5020593;28;19980;-60
2021/11/13 11:58:45;;;;;;;;;;;;;;;-144.99;100.00;52594.84;5021806;28;20021;-65
2021/11/13 12:01:23;;;;;;;;;;;;;;;-144.99;100.00;52562.25;5020405;28;19977;-66
2021/11/13 12:03:50;;;;;;;;;;;;;;;-144.99;100.00;52578.53;4676698;28;9999968;-65
2021/11/13 12:06:18;;;;;;;;;;;;;;;-144.99;100.00;52562.25;5027054;28;19991;-67
2021/11/13 12:09:01;;;;;;;;;;;;;;;-144.99;100.00;52558.16;5018755;28;20398;-68
2021/11/13 12:11:33;;;;;;;;;;;;;;;-144.99;100.00;52566.31;5026968;28;20007;-68
2021/11/13 12:14:20;;;;;;;;;;;;;;;-144.99;100.00;52603.00;5019030;28;20381;-68
2021/11/13 12:16:47;;;;;;;;;;;;;;;-144.99;100.00;52594.84;5023425;28;19985;-68
2021/11/13 12:19:15;;;;;;;;;;;;;;;-144.99;100.00;52566.31;5025112;28;19974;-67